Time;durP1;ratioP1;P1;durP2;ratioP2;P2;SDS_P1;SDS_P2;PMS_P1;PMS_P2;Temp;Humidity;BMP_temperature;BMP_pressure;BME280_temperature;BME280_humidity;BME280_pressure;Samples;Min_cycle;Max_cycle;Signal;HPM_P1;HPM_P2
2024/01/16 00:01:26;;;;;;;2.87;2.40;;;;;;;-0.53;65.87;94007.00;4897611;28;20207;-86
2024/01/16 00:03:56;;;;;;;3.30;2.10;;;;;;;-0.52;65.43;94007.78;4988963;28;20274;-86
2024/01/16 00:06:51;;;;;;;2.83;2.07;;;;;;;-0.47;65.26;94020.78;4989083;28;20222;-86
2024/01/16 00:09:17;;;;;;;3.97;1.90;;;;;;;-0.44;65.35;94020.50;4958134;28;20239;-86
2024/01/16 00:12:09;;;;;;;2.90;2.27;;;;;;;-0.43;65.62;94022.09;4982680;28;20196;-86
2024/01/16 00:14:41;;;;;;;3.07;2.10;;;;;;;-0.61;65.22;94003.66;4991604;28;20230;-86
2024/01/16 00:20:07;;;;;;;3.60;2.33;;;;;;;-0.65;65.52;94018.31;4948111;28;20259;-87
2024/01/16 00:26:06;;;;;;;2.60;1.97;;;;;;;-0.62;65.13;94007.13;4969518;28;20200;-86
2024/01/16 00:28:52;;;;;;;4.90;2.10;;;;;;;-0.53;65.30;94017.13;4987631;28;20234;-86
2024/01/16 00:31:20;;;;;;;2.60;2.10;;;;;;;-0.49;65.20;94015.88;4991517;28;20308;-87
2024/01/16 00:33:46;;;;;;;2.43;2.10;;;;;;;-0.41;65.21;94023.53;4990902;28;20199;-86
2024/01/16 00:36:13;;;;;;;2.43;2.10;;;;;;;-0.47;64.50;93990.47;4991227;28;20227;-87
2024/01/16 00:39:20;;;;;;;2.17;1.97;;;;;;;-0.56;64.94;93988.81;4991369;28;20199;-87
2024/01/16 00:41:57;;;;;;;2.17;1.97;;;;;;;-0.53;64.66;94001.94;4968464;28;20202;-86
2024/01/16 00:44:51;;;;;;;2.60;2.00;;;;;;;-0.53;64.69;94003.69;4991058;28;20241;-86
2024/01/16 00:50:19;;;;;;;2.27;1.90;;;;;;;-0.36;64.45;94018.81;4970357;28;20231;-87
2024/01/16 00:53:09;;;;;;;3.30;2.03;;;;;;;-0.45;63.54;93964.09;4991371;28;20210;-86
2024/01/16 00:55:40;;;;;;;2.97;2.00;;;;;;;-0.46;63.90;93971.81;4984436;28;20220;-86
2024/01/16 00:58:15;;;;;;;5.20;2.43;;;;;;;-0.43;64.18;93976.59;4987159;28;20258;-86
2024/01/16 01:00:41;;;;;;;2.30;1.90;;;;;;;-0.46;63.70;93966.78;4990961;28;20218;-86
2024/01/16 01:03:10;;;;;;;2.43;1.70;;;;;;;-0.71;63.94;93956.50;4991658;28;20208;-86
2024/01/16 01:05:50;;;;;;;2.30;1.87;;;;;;;-0.78;64.38;93982.53;4990922;28;20211;-86
2024/01/16 01:08:16;;;;;;;2.33;1.73;;;;;;;-0.74;64.52;94009.06;4988465;28;20222;-86
2024/01/16 01:10:44;;;;;;;3.07;1.90;;;;;;;-0.61;64.35;94006.97;4987045;28;20224;-86
2024/01/16 01:13:25;;;;;;;2.17;1.87;;;;;;;-0.64;64.28;93999.69;4984402;28;20577;-86
2024/01/16 01:16:04;;;;;;;2.73;2.13;;;;;;;-0.62;64.37;93997.78;4979679;28;20282;-86
2024/01/16 01:18:37;;;;;;;1.93;1.73;;;;;;;-0.77;63.98;93982.34;4991264;28;20211;-86
2024/01/16 01:26:54;;;;;;;2.97;2.17;;;;;;;-0.67;64.05;94024.44;4971535;28;20207;-86
2024/01/16 01:32:11;;;;;;;2.50;1.87;;;;;;;-0.70;64.09;94002.78;4990114;28;20208;-86
2024/01/16 01:34:38;;;;;;;3.60;1.83;;;;;;;-0.72;64.06;94024.88;4990305;28;20223;-86
2024/01/16 01:37:05;;;;;;;3.67;2.20;;;;;;;-0.83;64.51;94030.97;4990135;28;20735;-86
2024/01/16 01:39:34;;;;;;;2.43;1.93;;;;;;;-0.79;64.77;94051.69;4988814;28;20221;-86
2024/01/16 01:45:09;;;;;;;4.80;2.27;;;;;;;-0.81;64.66;94072.03;4989141;28;20207;-85
2024/01/16 01:47:59;;;;;;;2.70;2.00;;;;;;;-0.84;64.96;94069.00;4990780;28;20203;-86
2024/01/16 01:50:30;;;;;;;2.07;1.80;;;;;;;-0.80;64.71;94073.63;4989188;28;20597;-86
2024/01/16 01:55:37;;;;;;;2.67;2.27;;;;;;;-0.80;64.93;94080.41;4987193;28;20235;-87
2024/01/16 01:58:06;;;;;;;3.03;2.13;;;;;;;-0.92;65.10;94084.06;4990319;28;20681;-86
2024/01/16 02:00:33;;;;;;;3.20;1.83;;;;;;;-0.86;65.20;94106.22;4989712;28;20238;-87
2024/01/16 02:03:07;;;;;;;2.63;1.90;;;;;;;-0.85;64.87;94093.47;4990683;28;20210;-86
2024/01/16 02:05:52;;;;;;;2.43;2.03;;;;;;;-0.80;65.07;94106.47;4989792;28;20215;-87
2024/01/16 02:08:21;;;;;;;2.60;2.10;;;;;;;-0.81;64.67;94092.25;4974053;28;20851;-86
2024/01/16 02:11:03;;;;;;;3.57;2.03;;;;;;;-0.67;65.03;94111.16;4988803;28;20255;-87
2024/01/16 02:14:03;;;;;;;2.10;1.80;;;;;;;-0.70;64.89;94111.44;4989501;28;20250;-86
2024/01/16 02:17:00;;;;;;;2.90;1.90;;;;;;;-0.72;64.66;94108.25;4989043;28;20712;-86
2024/01/16 02:19:35;;;;;;;3.20;2.07;;;;;;;-0.64;64.70;94105.00;4989946;28;20633;-87
2024/01/16 02:22:29;;;;;;;4.37;1.93;;;;;;;-0.72;64.59;94072.88;4989332;28;20195;-86
2024/01/16 02:25:18;;;;;;;1.87;1.67;;;;;;;-0.78;64.06;94064.16;4989651;28;20286;-86
2024/01/16 02:27:51;;;;;;;3.23;2.07;;;;;;;-0.83;64.43;94070.59;4988787;28;20226;-89
2024/01/16 02:33:06;;;;;;;2.10;1.87;;;;;;;-0.70;64.16;94074.31;4986860;28;20278;-86
2024/01/16 02:35:34;;;;;;;2.53;1.83;;;;;;;-0.65;64.22;94071.38;4980804;28;20219;-86
2024/01/16 02:38:16;;;;;;;2.27;1.80;;;;;;;-0.68;63.98;94065.81;4972264;28;20734;-86
2024/01/16 02:41:14;;;;;;;2.00;1.60;;;;;;;-0.68;64.23;94075.91;4969567;28;20224;-87
2024/01/16 02:46:31;;;;;;;2.73;2.07;;;;;;;-0.67;63.96;94075.78;4959452;28;20578;-86
2024/01/16 02:49:10;;;;;;;2.60;1.73;;;;;;;-0.69;64.27;94085.22;4989465;28;20223;-86
2024/01/16 02:51:51;;;;;;;1.90;1.67;;;;;;;-0.57;64.49;94100.94;4988621;28;20222;-86
2024/01/16 02:54:21;;;;;;;2.17;1.80;;;;;;;-0.51;63.91;94080.94;4989132;28;20198;-86
2024/01/16 02:56:50;;;;;;;3.03;1.90;;;;;;;-0.41;64.04;94084.19;4989320;28;20223;-87
2024/01/16 02:59:20;;;;;;;2.87;1.90;;;;;;;-0.39;64.01;94084.84;4988097;28;20620;-87
2024/01/16 03:04:35;;;;;;;2.40;1.90;;;;;;;-0.47;64.05;94061.22;4988330;28;21119;-86
2024/01/16 03:07:05;;;;;;;2.87;2.03;;;;;;;-0.50;64.17;94077.47;4989131;28;20195;-86
2024/01/16 03:09:43;;;;;;;2.47;2.00;;;;;;;-0.47;64.17;94082.25;4988935;28;20227;-86
2024/01/16 03:14:54;;;;;;;3.43;1.87;;;;;;;-0.55;64.04;94083.91;4986220;28;20768;-87
2024/01/16 03:17:24;;;;;;;2.63;1.93;;;;;;;-0.47;64.17;94097.41;4988164;28;20594;-87
2024/01/16 03:19:51;;;;;;;2.80;1.80;;;;;;;-0.48;64.02;94088.25;4989081;28;20219;-87
2024/01/16 03:22:19;;;;;;;2.03;1.90;;;;;;;-0.44;63.57;94087.03;4988429;28;20199;-87
2024/01/16 03:24:46;;;;;;;2.60;1.93;;;;;;;-0.49;63.87;94079.06;4988728;28;20286;-87
2024/01/16 03:27:30;;;;;;;2.50;1.83;;;;;;;-0.57;63.89;94068.88;4987368;28;20203;-86
2024/01/16 03:30:08;;;;;;;2.33;1.90;;;;;;;-0.72;64.02;94075.41;4989162;28;20231;-86
2024/01/16 03:32:35;;;;;;;2.50;1.87;;;;;;;-0.70;63.94;94088.69;4981925;28;20224;-86
2024/01/16 03:35:06;;;;;;;3.53;2.00;;;;;;;-0.70;64.40;94106.38;4988507;28;20214;-86
2024/01/16 03:37:39;;;;;;;2.83;2.00;;;;;;;-0.77;64.15;94095.28;4983230;28;20216;-86
2024/01/16 03:40:34;;;;;;;2.60;1.80;;;;;;;-0.75;64.19;94099.22;4969249;28;20227;-86
2024/01/16 03:43:18;;;;;;;;;;;;;;;;;;;;;
2024/01/16 03:45:45;;;;;;;2.20;1.80;;;;;;;-0.71;64.32;94099.72;4985578;28;20204;-86
2024/01/16 03:48:11;;;;;;;2.60;1.90;;;;;;;-0.70;64.07;94096.28;4988675;28;20207;-86
2024/01/16 03:50:39;;;;;;;2.27;2.07;;;;;;;-0.66;64.30;94101.84;4991715;28;20239;-86
2024/01/16 03:53:06;;;;;;;2.93;2.10;;;;;;;-0.72;64.44;94098.94;4992688;28;20246;-86
2024/01/16 03:56:01;;;;;;;3.77;2.20;;;;;;;-0.68;64.22;94096.91;4992089;28;20196;-86
2024/01/16 03:58:29;;;;;;;3.67;2.47;;;;;;;-0.64;64.36;94103.28;4987413;28;20246;-86
2024/01/16 04:01:02;;;;;;;2.40;1.90;;;;;;;-0.61;64.60;94104.72;4992120;28;20247;-86
2024/01/16 04:03:44;;;;;;;2.03;1.70;;;;;;;-0.67;64.08;94095.97;4980124;28;21125;-87
2024/01/16 04:06:22;;;;;;;2.77;1.93;;;;;;;-0.65;64.35;94103.41;4992233;28;20200;-86
2024/01/16 04:09:01;;;;;;;3.07;2.13;;;;;;;-0.62;64.43;94109.00;4992164;28;20557;-87
2024/01/16 04:11:36;;;;;;;2.60;2.10;;;;;;;-0.60;64.49;94119.75;4984258;28;20196;-86
2024/01/16 04:14:17;;;;;;;2.10;1.90;;;;;;;-0.67;64.14;94105.28;4979283;28;20282;-87
2024/01/16 04:16:44;;;;;;;3.57;2.20;;;;;;;-0.66;64.43;94111.94;4991543;28;20221;-86
2024/01/16 04:21:52;;;;;;;3.47;2.20;;;;;;;-0.57;64.35;94127.00;4990051;28;20219;-87
2024/01/16 04:24:37;;;;;;;2.03;1.83;;;;;;;-0.55;64.62;94125.13;4991665;28;20270;-86
2024/01/16 04:27:04;;;;;;;2.63;2.10;;;;;;;-0.58;64.42;94117.88;4990716;28;20623;-86
2024/01/16 04:29:35;;;;;;;3.10;2.33;;;;;;;-0.64;64.37;94112.59;4979358;28;20221;-89
2024/01/16 04:32:05;;;;;;;4.47;2.00;;;;;;;-0.78;64.40;94112.16;4991770;28;20211;-88
2024/01/16 04:35:02;;;;;;;2.13;1.80;;;;;;;-0.76;64.90;94127.16;4992012;28;20294;-88
2024/01/16 04:37:48;;;;;;;3.40;1.90;;;;;;;-0.74;64.69;94126.06;4990582;28;20305;-89
2024/01/16 04:40:22;;;;;;;4.53;2.17;;;;;;;-0.72;64.59;94121.69;4972193;28;20230;-87
2024/01/16 04:42:49;;;;;;;2.00;1.80;;;;;;;-0.74;64.70;94112.66;4987950;28;20250;-86
2024/01/16 04:45:43;;;;;;;3.80;2.17;;;;;;;-0.70;64.65;94119.00;4991803;28;20279;-86
2024/01/16 04:48:12;;;;;;;2.47;1.73;;;;;;;-0.71;64.67;94112.38;4993352;28;20270;-86
2024/01/16 04:50:38;;;;;;;2.73;2.17;;;;;;;-0.71;64.68;94117.41;4991731;28;20233;-87
2024/01/16 04:53:12;;;;;;;3.40;2.10;;;;;;;-0.70;64.36;94107.16;4990370;28;20282;-85
2024/01/16 04:55:41;;;;;;;4.10;2.30;;;;;;;-0.72;64.28;94105.72;4991405;28;20211;-87
2024/01/16 05:01:06;;;;;;;3.07;2.13;;;;;;;-0.73;64.91;94122.63;4989104;28;20227;-86
2024/01/16 05:03:47;;;;;;;4.40;2.40;;;;;;;-0.74;64.58;94115.97;4991425;28;20265;-86
2024/01/16 05:06:17;;;;;;;3.23;2.53;;;;;;;-0.73;64.93;94122.63;4991459;28;20295;-86
2024/01/16 05:11:38;;;;;;;4.40;2.30;;;;;;;-0.68;64.93;94134.03;4972523;28;20265;-86
2024/01/16 05:17:19;;;;;;;3.50;2.20;;;;;;;-0.68;64.78;94117.13;4987765;28;20294;-87
2024/01/16 05:19:56;;;;;;;2.60;2.00;;;;;;;-0.69;64.86;94120.59;4992259;28;20231;-86
2024/01/16 05:22:27;;;;;;;4.63;2.20;;;;;;;-0.65;64.79;94126.16;4992171;28;20205;-86
2024/01/16 05:28:24;;;;;;;4.13;2.30;;;;;;;-0.70;64.67;94107.16;4934673;29;20220;-86
2024/01/16 05:31:02;;;;;;;4.13;2.10;;;;;;;-0.72;64.83;94129.25;4988197;28;20259;-86
2024/01/16 05:33:59;;;;;;;2.33;2.00;;;;;;;-0.78;64.91;94116.44;4984777;28;20251;-88
2024/01/16 05:36:29;;;;;;;4.50;2.20;;;;;;;-0.79;64.71;94125.75;4947908;29;20722;-87
2024/01/16 05:39:14;;;;;;;2.97;2.17;;;;;;;-0.85;64.60;94116.19;4968764;28;20220;-86
2024/01/16 05:42:13;;;;;;;3.33;2.50;;;;;;;-0.86;65.07;94118.88;5005313;28;20283;-86
2024/01/16 05:47:20;;;;;;;3.00;2.43;;;;;;;-0.84;64.91;94132.94;5007689;28;20279;-86
2024/01/16 05:49:46;;;;;;;6.67;2.30;;;;;;;-0.90;64.58;94120.09;5003056;28;20220;-87
2024/01/16 05:52:27;;;;;;;3.80;2.50;;;;;;;-0.91;64.88;94123.53;4988661;28;20201;-87
2024/01/16 05:57:40;;;;;;;5.00;2.30;;;;;;;-0.86;65.02;94121.38;4983986;28;20299;-87
2024/01/16 06:00:17;;;;;;;2.20;2.00;;;;;;;-0.78;66.29;94198.06;4994959;28;20227;-87
2024/01/16 06:02:49;;;;;;;3.13;2.37;;;;;;;-0.76;64.73;94122.91;4991907;28;20254;-86
2024/01/16 06:05:18;;;;;;;4.30;2.27;;;;;;;-0.76;64.30;94096.84;4975519;28;20204;-88
2024/01/16 06:10:54;;;;;;;2.87;2.20;;;;;;;-0.80;64.72;94098.88;4973317;28;20230;-87
2024/01/16 06:13:34;;;;;;;3.37;2.23;;;;;;;-0.76;64.30;94090.06;4989503;28;20226;-86
2024/01/16 06:16:02;;;;;;;2.80;2.00;;;;;;;-0.85;63.97;94080.03;4990606;28;20207;-88
2024/01/16 06:18:36;;;;;;;3.10;2.27;;;;;;;-0.85;64.61;94085.09;4990349;28;20579;-87
2024/01/16 06:21:11;;;;;;;4.37;2.30;;;;;;;-0.82;64.23;94083.06;4981718;28;20204;-87
2024/01/16 06:23:59;;;;;;;2.40;2.20;;;;;;;-0.75;64.34;94083.28;4970855;28;20203;-87
2024/01/16 06:26:26;;;;;;;3.10;2.20;;;;;;;-0.72;64.17;94075.41;4975395;28;20306;-87
2024/01/16 06:28:52;;;;;;;2.53;1.93;;;;;;;-0.77;63.96;94047.28;4989581;28;20553;-87
2024/01/16 06:31:19;;;;;;;2.87;2.20;;;;;;;-0.77;64.17;94059.91;4986055;28;20234;-87
2024/01/16 06:33:45;;;;;;;2.33;2.10;;;;;;;-0.76;63.82;94042.06;4991560;28;20210;-86
2024/01/16 06:39:06;;;;;;;3.63;2.27;;;;;;;-0.67;63.54;94047.19;4987799;28;20235;-88
2024/01/16 06:41:32;;;;;;;2.87;2.10;;;;;;;-0.67;63.50;94045.44;4991145;28;20199;-87
2024/01/16 06:43:59;;;;;;;3.43;2.33;;;;;;;-0.61;64.02;94059.25;4989941;28;20203;-87
2024/01/16 06:46:26;;;;;;;2.00;1.80;;;;;;;-0.57;63.72;94053.72;4989571;28;20202;-87
2024/01/16 06:48:52;;;;;;;3.40;2.20;;;;;;;-0.53;63.47;94037.34;4989437;28;20685;-87
2024/01/16 06:51:19;;;;;;;4.87;2.40;;;;;;;-0.53;63.41;94028.97;4988279;28;20307;-86
2024/01/16 06:53:47;;;;;;;5.17;2.30;;;;;;;-0.55;63.11;94008.09;4989296;28;20211;-87
2024/01/16 06:56:18;;;;;;;5.13;2.40;;;;;;;-0.58;63.00;94013.47;4989533;28;20359;-87
2024/01/16 06:58:47;;;;;;;3.00;1.93;;;;;;;-0.51;63.25;94049.81;4989824;28;20266;-87
2024/01/16 07:01:23;;;;;;;4.53;2.57;;;;;;;-0.49;65.58;94162.47;4989519;28;20207;-86
2024/01/16 07:03:49;;;;;;;6.80;3.97;;;;;;;-0.43;64.06;94087.81;4990864;28;20207;-87
2024/01/16 07:06:16;;;;;;;6.53;4.30;;;;;;;-0.41;63.04;94037.91;4989073;28;20219;-87
2024/01/16 07:09:05;;;;;;;6.20;3.90;;;;;;;-0.34;63.29;94054.03;4971008;28;20208;-87
2024/01/16 07:11:32;;;;;;;4.13;2.80;;;;;;;-0.29;63.33;94036.72;4979834;28;20200;-87
2024/01/16 07:14:03;;;;;;;4.43;2.20;;;;;;;-0.23;63.27;94031.06;4989107;28;20257;-87
2024/01/16 07:16:40;;;;;;;;;;;;;;;;;;;;;
2024/01/16 07:19:07;;;;;;;2.20;1.97;;;;;;;-0.16;63.01;94021.13;4987443;28;20591;-87
2024/01/16 07:21:34;;;;;;;4.20;1.90;;;;;;;-0.17;62.68;93997.56;4988612;28;20717;-87
2024/01/16 07:24:00;;;;;;;3.10;2.00;;;;;;;-0.13;62.80;94006.44;4988912;28;20211;-87
2024/01/16 07:26:44;;;;;;;4.43;2.30;;;;;;;-0.15;62.30;93995.69;4988535;28;20207;-87
2024/01/16 07:29:11;;;;;;;5.00;2.47;;;;;;;-0.11;62.28;94017.22;4988949;28;20227;-88
2024/01/16 07:34:26;;;;;;;3.80;2.50;;;;;;;-0.09;62.40;94022.91;4987125;28;20242;-86
2024/01/16 07:36:54;;;;;;;3.47;2.70;;;;;;;-0.07;62.65;94032.88;4989414;28;20223;-87
2024/01/16 07:39:22;;;;;;;6.07;2.90;;;;;;;-0.11;62.33;94019.75;4989942;28;20246;-87
2024/01/16 07:41:48;;;;;;;2.70;2.37;;;;;;;-0.08;62.67;94032.09;4988655;28;20203;-87
2024/01/16 07:44:28;;;;;;;4.00;2.47;;;;;;;-0.08;62.53;94023.72;4989130;28;20230;-87
2024/01/16 07:47:04;;;;;;;2.77;2.30;;;;;;;-0.03;62.73;94029.13;4988633;28;20203;-88
2024/01/16 07:52:12;;;;;;;4.70;2.90;;;;;;;-0.09;62.37;94014.53;4986743;28;20226;-87
2024/01/16 07:54:38;;;;;;;5.33;2.50;;;;;;;-0.12;63.00;94035.84;4988747;28;20287;-87
2024/01/16 07:57:08;;;;;;;2.73;2.30;;;;;;;-0.07;63.94;94103.72;4988377;28;20219;-86
2024/01/16 07:59:50;;;;;;;8.37;3.43;;;;;;;0.09;63.13;94078.50;4988893;28;20730;-87
2024/01/16 08:20:11;;;;;;;4.13;2.67;;;;;;;0.56;61.93;94023.19;4795433;29;20265;-87
2024/01/16 08:23:18;;;;;;;3.27;2.60;;;;;;;0.67;61.68;94011.97;4747480;30;20211;-87
2024/01/16 08:26:57;;;;;;;3.13;2.83;;;;;;;0.77;61.65;94004.25;4763826;30;20273;-87
2024/01/16 08:35:19;;;;;;;5.93;3.20;;;;;;;0.94;61.61;94003.31;4791672;26;20594;-86
2024/01/16 08:40:44;;;;;;;5.40;2.83;;;;;;;1.02;62.00;94019.28;4990261;28;20241;-87
2024/01/16 08:43:13;;;;;;;4.70;2.97;;;;;;;1.06;61.68;94022.31;4991423;28;20253;-87
2024/01/16 08:45:47;;;;;;;5.07;2.90;;;;;;;1.05;61.19;93985.25;4991795;28;20200;-87
2024/01/16 08:48:16;;;;;;;5.53;3.63;;;;;;;1.01;61.71;93984.78;4991696;28;20302;-87
2024/01/16 08:50:43;;;;;;;4.23;3.43;;;;;;;1.20;72.84;94507.53;4994111;28;20231;-87
2024/01/16 08:53:11;;;;;;;5.33;3.30;;;;;;;1.63;86.61;94960.84;4998183;28;20225;-85
2024/01/16 08:55:46;;;;;;;4.93;3.37;;;;;;;1.90;69.96;94491.41;4994325;28;20218;-86
2024/01/16 08:58:24;;;;;;;3.63;3.17;;;;;;;2.00;63.88;94118.19;4977092;28;20219;-87
2024/01/16 09:01:05;;;;;;;4.87;3.00;;;;;;;1.95;62.21;93988.44;4971800;28;20224;-87
2024/01/16 09:03:36;;;;;;;5.33;3.40;;;;;;;1.89;61.70;93935.84;4972119;28;20616;-87
2024/01/16 09:06:08;;;;;;;3.67;3.00;;;;;;;1.97;61.15;93923.91;4972211;28;20306;-87
2024/01/16 09:08:54;;;;;;;5.13;3.40;;;;;;;2.14;60.79;93921.28;4979867;28;20556;-88
2024/01/16 09:11:36;;;;;;;4.43;3.40;;;;;;;2.17;60.23;93878.59;4989202;28;20199;-87
2024/01/16 09:14:03;;;;;;;3.43;2.90;;;;;;;2.20;59.99;93845.25;4992121;28;20218;-87
2024/01/16 09:16:30;;;;;;;6.57;3.20;;;;;;;2.26;59.81;93834.44;4991342;28;20200;-87
2024/01/16 09:18:56;;;;;;;4.43;2.97;;;;;;;2.37;59.06;93818.81;4991022;28;20310;-87
2024/01/16 09:21:40;;;;;;;4.97;2.90;;;;;;;2.59;58.56;93811.34;4990724;28;20210;-87
2024/01/16 09:24:14;;;;;;;3.57;2.87;;;;;;;2.90;58.25;93804.38;4991255;28;20203;-87
2024/01/16 09:26:45;;;;;;;4.60;3.07;;;;;;;3.01;57.50;93737.09;4989442;28;20569;-87
2024/01/16 09:29:21;;;;;;;3.90;2.70;;;;;;;3.04;57.34;93726.56;4991436;28;20219;-88
2024/01/16 09:31:54;;;;;;;4.20;3.10;;;;;;;2.96;57.08;93703.78;4990915;28;20299;-87
2024/01/16 09:34:26;;;;;;;4.93;3.40;;;;;;;2.87;56.89;93684.53;4990899;28;20223;-87
2024/01/16 09:37:02;;;;;;;4.50;3.17;;;;;;;2.77;57.12;93679.69;4991274;28;20203;-87
2024/01/16 09:39:39;;;;;;;4.47;3.17;;;;;;;2.85;57.38;93722.03;4992309;28;20250;-87
2024/01/16 09:42:12;;;;;;;4.43;3.13;;;;;;;2.99;57.47;93732.19;4989254;28;20286;-87
2024/01/16 09:44:49;;;;;;;4.17;2.70;;;;;;;2.97;56.16;93659.63;4988429;28;20211;-86
2024/01/16 09:47:22;;;;;;;3.57;2.93;;;;;;;2.95;56.45;93657.25;4989889;28;20290;-87
2024/01/16 09:49:59;;;;;;;4.40;3.00;;;;;;;3.01;56.83;93676.88;4990129;28;20755;-87
2024/01/16 09:52:34;;;;;;;4.67;3.07;;;;;;;2.96;56.55;93679.16;4990100;28;20218;-87
2024/01/16 09:55:09;;;;;;;3.93;2.90;;;;;;;2.92;56.77;93679.69;4991060;28;20199;-87
2024/01/16 09:57:41;;;;;;;4.90;3.10;;;;;;;2.80;56.77;93673.47;4990353;28;20230;-86
2024/01/16 10:21:53;;;;;;;3.30;2.60;;;;;;;2.54;55.96;93623.09;4954966;28;20566;-88
2024/01/16 10:24:28;;;;;;;4.60;2.90;;;;;;;2.54;56.35;93636.59;4970140;28;20208;-87
2024/01/16 10:34:20;;;;;;;3.83;2.80;;;;;;;2.62;56.86;93645.88;4949209;28;20218;-88
2024/01/16 10:48:37;;;;;;;3.13;2.53;;;;;;;2.44;57.39;93658.94;1461874;26;20706;-87
2024/01/16 10:51:28;;;;;;;4.13;2.83;;;;;;;2.47;56.76;93658.59;4950727;28;20237;-88
2024/01/16 11:04:31;;;;;;;3.70;2.57;;;;;;;2.75;55.85;93578.25;4828396;29;20282;-87
2024/01/16 11:13:18;;;;;;;3.50;2.30;;;;;;;2.84;70.07;94239.66;4910508;28;20232;-84
2024/01/16 11:15:48;;;;;;;2.90;2.00;;;;;;;3.67;89.66;94924.59;4977678;28;20630;-84
2024/01/16 11:18:16;;;;;;;4.20;2.70;;;;;;;4.44;82.01;94824.25;4977102;28;20224;-84
2024/01/16 11:20:55;;;;;;;5.47;4.10;;;;;;;4.84;65.22;94266.78;4973693;28;20595;-86
2024/01/16 11:23:26;;;;;;;4.60;2.83;;;;;;;4.69;56.04;93652.50;4974507;28;20294;-87
2024/01/16 11:25:52;;;;;;;3.50;2.90;;;;;;;4.43;54.22;93494.38;4975955;28;20208;-86
2024/01/16 11:31:36;;;;;;;2.73;2.10;;;;;;;3.87;53.53;93348.66;4972053;28;20247;-86
2024/01/16 11:37:34;;;;;;;3.17;2.27;;;;;;;3.52;53.23;93330.91;4968593;28;20208;-86
2024/01/16 11:40:26;;;;;;;3.50;2.20;;;;;;;3.45;53.24;93318.19;4970122;28;20294;-86
2024/01/16 11:42:53;;;;;;;3.30;2.20;;;;;;;3.39;53.23;93285.84;4971614;28;20212;-87
2024/01/16 11:45:53;;;;;;;3.90;2.60;;;;;;;3.33;53.47;93329.06;4971796;28;20196;-86
2024/01/16 11:48:30;;;;;;;5.37;2.93;;;;;;;3.34;54.84;93399.28;4968247;28;20633;-86
2024/01/16 11:51:07;;;;;;;4.37;2.57;;;;;;;3.40;54.14;93378.97;4971690;28;20920;-86
2024/01/16 11:53:51;;;;;;;2.93;2.47;;;;;;;3.40;53.31;93315.41;4971633;28;20211;-86
2024/01/16 12:03:16;;;;;;;12.27;8.43;;;;;;;3.19;53.34;93300.22;4929049;29;20206;-86
2024/01/16 12:20:22;;;;;;;3.70;1.83;;;;;;;3.27;51.49;93157.69;4861215;29;20376;-87
2024/01/16 12:22:55;;;;;;;2.70;1.87;;;;;;;3.22;51.29;93098.25;4908820;28;20569;-86
2024/01/16 12:25:22;;;;;;;2.23;1.70;;;;;;;3.10;51.38;93093.72;4971254;28;20219;-86
2024/01/16 12:27:58;;;;;;;2.33;1.80;;;;;;;3.04;51.46;93094.50;4973793;28;20204;-86
2024/01/16 12:30:37;;;;;;;2.53;1.80;;;;;;;2.82;50.93;93042.25;4975053;28;20593;-86
2024/01/16 12:33:13;;;;;;;2.23;1.60;;;;;;;2.73;51.62;93084.03;4974681;28;20208;-86
2024/01/16 12:36:03;;;;;;;2.67;1.67;;;;;;;2.73;51.72;93109.44;4975531;28;20200;-85
2024/01/16 12:50:16;;;;;;;;;;;;;;;;;;;;;
2024/01/16 12:56:19;;;;;;;3.30;2.00;;;;;;;3.05;51.71;93130.84;4793031;29;20356;-86
2024/01/16 12:58:46;;;;;;;2.87;1.73;;;;;;;3.03;52.03;93130.25;4874724;29;20367;-86
2024/01/16 13:01:36;;;;;;;6.53;4.00;;;;;;;2.95;51.46;93084.69;4874563;29;20204;-86
2024/01/16 13:04:04;;;;;;;5.23;3.60;;;;;;;2.85;51.68;93107.13;4952339;28;20223;-87
2024/01/16 13:06:34;;;;;;;3.07;1.93;;;;;;;2.90;51.62;93092.88;4972595;28;20212;-86
2024/01/16 13:09:19;;;;;;;2.40;1.60;;;;;;;2.80;50.17;92983.22;4972030;28;20204;-87
2024/01/16 13:11:49;;;;;;;2.53;1.50;;;;;;;2.75;50.61;92983.00;4961331;28;20559;-87
2024/01/16 13:14:22;;;;;;;3.20;2.10;;;;;;;2.82;50.58;92967.78;4971819;28;20673;-86
2024/01/16 13:17:01;;;;;;;2.27;1.53;;;;;;;2.88;49.83;92941.63;4971608;28;20215;-87
2024/01/16 13:19:33;;;;;;;2.73;2.40;;;;;;;2.71;50.07;92908.94;4971898;28;20228;-87
2024/01/16 13:22:09;;;;;;;2.93;2.20;;;;;;;2.56;50.55;92943.91;4971281;28;20204;-86
2024/01/16 13:24:45;;;;;;;4.23;2.00;;;;;;;2.66;50.99;92990.03;4972841;28;20203;-87
2024/01/16 13:27:13;;;;;;;2.83;1.77;;;;;;;2.74;50.44;92943.34;4972704;28;20208;-87
2024/01/16 13:29:41;;;;;;;2.20;1.70;;;;;;;2.64;50.12;92902.31;4971392;28;20719;-86
2024/01/16 13:32:08;;;;;;;1.90;1.70;;;;;;;2.64;50.54;92945.50;4972564;28;20215;-86
2024/01/16 13:34:35;;;;;;;2.80;1.90;;;;;;;2.68;50.46;92950.00;4971760;28;20207;-87
2024/01/16 13:37:21;;;;;;;2.43;1.60;;;;;;;2.78;50.82;92978.34;4972750;28;20208;-87
2024/01/16 13:39:49;;;;;;;3.40;1.90;;;;;;;2.78;50.61;92967.38;4972386;28;20356;-86
2024/01/16 13:42:32;;;;;;;5.37;1.93;;;;;;;2.83;50.53;92959.97;4973384;28;20644;-86
2024/01/16 13:44:59;;;;;;;4.77;1.63;;;;;;;2.88;50.10;92934.00;4972282;28;20207;-86
2024/01/16 13:47:25;;;;;;;3.53;1.67;;;;;;;2.93;50.02;92792.66;4975019;28;20213;-86
2024/01/16 13:49:54;;;;;;;2.33;1.80;;;;;;;2.94;49.61;93210.94;4972875;28;20270;-86
2024/01/16 13:52:38;;;;;;;2.77;1.50;;;;;;;2.99;49.40;93248.50;4965103;28;20212;-86
2024/01/16 13:55:05;;;;;;;2.97;1.80;;;;;;;2.80;49.10;93246.66;4971374;28;20196;-86
2024/01/16 13:57:48;;;;;;;;;;;;;;;;;;;;;
2024/01/16 14:00:17;;;;;;;10.43;6.43;;;;;;;2.86;50.80;93343.25;4954565;28;20232;-87
2024/01/16 14:02:45;;;;;;;11.97;8.70;;;;;;;2.87;50.20;93321.16;4973592;28;20239;-86
2024/01/16 14:05:15;;;;;;;3.23;2.10;;;;;;;2.82;49.53;93282.81;4972270;28;20200;-86
2024/01/16 14:07:56;;;;;;;3.50;1.93;;;;;;;2.76;49.85;93271.63;4972686;28;20565;-86
2024/01/16 14:10:24;;;;;;;5.87;2.17;;;;;;;2.76;50.05;93292.75;4971762;28;20224;-87
2024/01/16 14:12:57;;;;;;;3.73;2.10;;;;;;;2.81;50.35;93320.13;4953931;28;20212;-86
2024/01/16 14:15:41;;;;;;;2.37;2.10;;;;;;;2.84;50.91;93368.03;4954940;29;20276;-86
2024/01/16 14:18:16;;;;;;;4.43;2.00;;;;;;;2.81;51.41;93378.56;4967446;28;20200;-87
2024/01/16 14:20:53;;;;;;;2.80;1.90;;;;;;;2.84;50.86;93393.47;4972234;28;20232;-86
2024/01/16 14:23:20;;;;;;;4.37;2.10;;;;;;;2.86;51.68;93416.13;4972043;28;20196;-86
2024/01/16 14:25:47;;;;;;;2.30;2.10;;;;;;;2.85;51.83;93412.03;4974260;28;20220;-85
2024/01/16 14:28:39;;;;;;;2.80;2.30;;;;;;;2.86;51.65;93429.63;4972618;28;20208;-86
2024/01/16 14:31:05;;;;;;;3.27;2.13;;;;;;;2.87;51.99;93436.28;4949011;28;20243;-86
2024/01/16 14:33:32;;;;;;;2.13;1.93;;;;;;;2.83;53.88;93501.13;4969266;28;20525;-86
2024/01/16 14:35:59;;;;;;;3.07;2.77;;;;;;;2.82;53.41;93529.25;4970582;28;20208;-86
2024/01/16 14:38:37;;;;;;;5.70;3.07;;;;;;;2.80;54.14;93559.94;4969118;28;20689;-86
2024/01/16 14:41:05;;;;;;;3.73;3.17;;;;;;;2.81;54.50;93594.53;4951788;28;20225;-86
2024/01/16 14:43:37;;;;;;;5.23;3.77;;;;;;;2.82;55.25;93629.16;4966307;28;20257;-86
2024/01/16 14:48:45;;;;;;;5.87;4.33;;;;;;;2.77;55.88;93672.88;4960607;28;20204;-86
2024/01/16 14:51:12;;;;;;;6.17;3.77;;;;;;;2.77;56.30;93695.72;4969387;28;20232;-87
2024/01/16 14:53:38;;;;;;;6.47;4.50;;;;;;;2.77;56.39;93707.63;4968945;28;20200;-87
2024/01/16 14:56:06;;;;;;;5.47;3.77;;;;;;;2.73;56.55;93724.97;4959574;28;20667;-86
2024/01/16 14:58:50;;;;;;;6.47;4.40;;;;;;;2.74;56.97;93728.31;4958135;28;20586;-86
2024/01/16 15:01:18;;;;;;;26.03;16.97;;;;;;;2.73;56.76;93729.28;4975198;28;20196;-86
2024/01/16 15:03:46;;;;;;;10.27;7.73;;;;;;;2.89;70.19;94206.09;4983252;28;20212;-86
2024/01/16 15:09:34;;;;;;;11.40;5.63;;;;;;;2.88;57.46;93760.59;4911158;29;20245;-85
2024/01/16 15:12:27;;;;;;;15.03;9.43;;;;;;;2.69;56.84;93718.66;4958535;28;20208;-85
2024/01/16 15:14:54;;;;;;;8.90;5.90;;;;;;;2.62;57.19;93725.44;4968526;28;20792;-85
2024/01/16 15:17:22;;;;;;;9.47;5.23;;;;;;;2.64;57.12;93736.22;4971844;28;20204;-85
2024/01/16 15:19:48;;;;;;;7.80;4.23;;;;;;;2.61;56.99;93728.13;4972491;28;20231;-85
2024/01/16 15:22:15;;;;;;;8.97;4.30;;;;;;;2.58;57.46;93724.19;4970285;28;20208;-85
2024/01/16 15:24:41;;;;;;;9.80;4.43;;;;;;;2.63;57.44;93733.84;4972235;28;20212;-85
2024/01/16 15:27:22;;;;;;;6.70;3.90;;;;;;;2.63;57.55;93744.78;4971876;28;20216;-85
2024/01/16 15:29:50;;;;;;;7.63;3.87;;;;;;;2.64;57.28;93737.97;4973005;28;20220;-86
2024/01/16 15:32:16;;;;;;;7.87;3.70;;;;;;;2.63;57.08;93727.00;4972583;28;20670;-85
2024/01/16 15:34:44;;;;;;;7.60;4.00;;;;;;;2.63;57.40;93732.09;4973104;28;20204;-85